Time;durP1;ratioP1;P1;durP2;ratioP2;P2;SDS_P1;SDS_P2;PMS_P1;PMS_P2;Temp;Humidity;BMP_temperature;BMP_pressure;BME280_temperature;BME280_humidity;BME280_pressure;Samples;Min_cycle;Max_cycle;Signal;HPM_P1;HPM_P2
2021/05/18 00:01:28;;;;;;;5.90;3.80;;;7.90;99.90;;;6.38;100.00;100273.13;4863614;28;20088;-78
2021/05/18 00:03:50;;;;;;;5.93;3.10;;;9.90;99.90;;;6.35;100.00;100274.09;4860131;28;20093;-77
2021/05/18 00:06:13;;;;;;;5.22;2.92;;;7.90;99.90;;;6.38;100.00;100278.34;4863227;28;20552;-79
2021/05/18 00:11:42;;;;;;;7.22;3.35;;;7.80;99.90;;;6.27;100.00;100278.75;4863129;28;20090;-78
2021/05/18 00:14:00;;;;;;;6.32;2.97;;;7.50;99.90;;;5.98;100.00;100279.75;4863489;28;20541;-79
2021/05/18 00:16:23;;;;;;;4.80;2.83;;;;;;;5.87;100.00;100282.69;4863033;28;20143;-78
2021/05/18 00:18:48;;;;;;;3.92;2.90;;;7.40;99.90;;;5.84;100.00;100286.28;4863531;28;20626;-79
2021/05/18 00:21:11;;;;;;;4.20;2.45;;;7.30;99.90;;;5.77;100.00;100284.78;4861504;28;20085;-79
2021/05/18 00:23:35;;;;;;;81.15;2.38;;;7.20;99.90;;;5.53;100.00;100284.69;4863028;28;20088;-79
2021/05/18 00:25:59;;;;;;;123.35;2.92;;;6.70;99.90;;;5.06;100.00;100281.84;4863795;28;20450;-79
2021/05/18 00:28:22;;;;;;;78.22;1.40;;;6.40;99.90;;;4.76;100.00;100291.44;4863590;28;20241;-79
2021/05/18 00:30:46;;;;;;;4.95;0.50;;;6.20;99.90;;;4.65;100.00;100289.16;4864113;28;20541;-79
2021/05/18 00:33:14;;;;;;;0.50;0.50;;;6.20;99.90;;;4.65;100.00;100294.38;4862479;28;20091;-79
2021/05/18 00:35:38;;;;;;;1.52;0.98;;;6.20;99.90;;;4.68;100.00;100294.28;4862262;28;20091;-78
2021/05/18 00:38:03;;;;;;;2.13;0.90;;;;;;;4.68;100.00;100290.81;4860723;28;20436;-78
2021/05/18 00:40:26;;;;;;;0.50;0.50;;;;;;;4.58;100.00;100295.47;4861890;28;20088;-79
2021/05/18 00:42:53;;;;;;;84.68;2.80;;;6.00;99.90;;;4.49;100.00;100293.09;4862033;28;20087;-79
2021/05/18 00:45:25;;;;;;;11.77;1.50;;;6.00;99.90;;;4.44;100.00;100289.78;4863341;28;20085;-79
2021/05/18 00:47:48;;;;;;;36.58;2.15;;;6.00;99.90;;;4.44;100.00;100290.63;4861481;28;20087;-78
2021/05/18 00:50:13;;;;;;;2.75;1.92;;;6.00;99.90;;;4.48;100.00;100288.78;4862231;28;20129;-78
2021/05/18 00:52:38;;;;;;;3.58;1.70;;;;;;;4.55;100.00;100287.72;4861472;28;20092;-78
2021/05/18 00:55:05;;;;;;;6.13;1.33;;;6.10;99.90;;;4.61;100.00;100286.69;4862216;28;20196;-79
2021/05/18 01:00:10;;;;;;;4.28;1.95;;;6.30;99.90;;;4.84;100.00;100288.63;4865145;28;20118;-79
2021/05/18 01:02:33;;;;;;;5.53;2.40;;;6.40;99.90;;;4.96;100.00;100283.03;4861132;28;21187;-79
2021/05/18 01:05:07;;;;;;;3.47;2.17;;;6.60;99.90;;;5.12;100.00;100281.66;4844797;28;20083;-79
2021/05/18 01:07:29;;;;;;;8.18;1.85;;;;;;;5.14;100.00;100287.69;4842082;28;20090;-77
2021/05/18 01:09:53;;;;;;;2.80;1.40;;;6.60;99.90;;;5.06;100.00;100279.22;4845957;28;20097;-79
2021/05/18 01:12:16;;;;;;;25.80;2.20;;;6.50;99.90;;;5.04;100.00;100290.63;4843823;28;20111;-79
2021/05/18 01:14:39;;;;;;;47.08;1.95;;;6.50;99.90;;;4.93;100.00;100285.72;4847394;28;20075;-79
2021/05/18 01:17:03;;;;;;;10.93;1.50;;;6.40;99.90;;;4.85;100.00;100280.72;4845200;28;20113;-78
2021/05/18 01:19:27;;;;;;;2.22;1.40;;;6.40;99.90;;;4.84;100.00;100289.47;4858176;28;20092;-77
2021/05/18 01:21:51;;;;;;;58.95;2.42;;;6.40;99.90;;;4.86;100.00;100282.47;4861497;28;20082;-80
2021/05/18 01:24:21;;;;;;;12.87;1.80;;;6.50;99.90;;;5.02;100.00;100287.22;4861542;28;20094;-79
2021/05/18 01:26:45;;;;;;;3.40;2.17;;;6.70;99.90;;;5.20;100.00;100285.78;4861664;28;20113;-79
2021/05/18 01:29:09;;;;;;;3.22;2.00;;;6.80;99.90;;;5.39;100.00;100286.91;4842215;28;20113;-78
2021/05/18 01:31:33;;;;;;;3.70;1.98;;;6.90;99.90;;;5.49;100.00;100287.47;4844129;28;20132;-80
2021/05/18 01:33:56;;;;;;;3.75;2.15;;;;;;;5.46;100.00;100282.31;4842184;28;20087;-79
2021/05/18 01:36:21;;;;;;;11.48;3.20;;;7.00;99.90;;;5.42;100.00;100289.44;4864754;28;20108;-79
2021/05/18 01:38:52;;;;;;;11.43;2.63;;;6.90;99.90;;;5.33;100.00;100293.19;4843197;28;20079;-78
2021/05/18 01:44:00;;;;;;;42.67;4.03;;;6.50;99.90;;;4.97;100.00;100299.53;4843552;28;20446;-79
2021/05/18 01:46:27;;;;;;;34.78;3.63;;;6.40;99.90;;;4.81;100.00;100302.59;4842390;28;20090;-79
2021/05/18 01:48:58;;;;;;;23.60;2.63;;;6.30;99.90;;;4.68;100.00;100301.25;4845839;28;20094;-79
2021/05/18 01:51:21;;;;;;;27.42;3.08;;;6.10;99.90;;;4.55;100.00;100305.97;4843592;28;20080;-80
2021/05/18 01:53:44;;;;;;;2.45;1.45;;;6.00;99.90;;;4.42;100.00;100308.06;4844099;28;20628;-80
2021/05/18 01:56:19;;;;;;;28.73;2.53;;;5.90;99.90;;;4.35;100.00;100310.88;4843035;28;20083;-79
2021/05/18 01:58:42;;;;;;;15.57;1.60;;;5.80;99.90;;;4.28;100.00;100313.66;4840833;28;20447;-78
2021/05/18 02:01:04;;;;;;;15.35;2.70;;;5.80;99.90;;;4.28;100.00;100311.06;4845065;28;20549;-78
2021/05/18 02:03:28;;;;;;;10.38;2.08;;;5.80;99.90;;;4.30;100.00;100316.22;4843465;28;20096;-79
2021/05/18 02:05:50;;;;;;;9.63;4.63;;;5.90;99.90;;;4.45;100.00;100309.72;4844684;28;20608;-78
2021/05/18 02:08:15;;;;;;;4.00;2.80;;;6.20;99.90;;;4.67;100.00;100317.81;4841526;28;20115;-79
2021/05/18 02:10:40;;;;;;;7.87;3.37;;;;;;;4.89;100.00;100316.28;4861322;28;20141;-78
2021/05/18 02:13:03;;;;;;;7.45;3.90;;;6.50;99.90;;;5.13;100.00;100325.09;4846426;28;20496;-79
2021/05/18 02:15:33;;;;;;;6.88;4.15;;;6.60;99.90;;;5.14;100.00;100320.75;4844954;28;20133;-80
2021/05/18 02:18:37;;;;;;;5.80;3.67;;;6.70;99.90;;;5.37;100.00;100327.88;4842065;28;20092;-78
2021/05/18 02:26:30;;;;;;;3.42;2.40;;;6.80;99.90;;;5.20;100.00;100327.53;4860792;28;20087;-79
2021/05/18 02:28:53;;;;;;;3.13;2.25;;;6.70;99.90;;;5.19;100.00;100336.28;4859995;28;20119;-78
2021/05/18 02:31:17;;;;;;;3.42;2.30;;;6.70;99.90;;;5.16;100.00;100341.56;4859989;28;20603;-78
2021/05/18 02:33:45;;;;;;;4.68;2.67;;;5.90;99.90;;;5.12;100.00;100331.25;4860701;28;20085;-79
2021/05/18 02:36:09;;;;;;;4.25;2.90;;;6.60;99.90;;;5.12;100.00;100335.63;4861186;28;20075;-79
2021/05/18 02:38:31;;;;;;;5.65;2.20;;;6.70;99.90;;;5.10;100.00;100340.88;4879022;28;20091;-79
2021/05/18 02:40:54;;;;;;;4.10;2.53;;;6.60;99.90;;;5.06;100.00;100341.88;4873465;28;20277;-79
2021/05/18 02:43:22;;;;;;;3.78;2.40;;;;;;;4.93;100.00;100340.53;4847988;28;20510;-79
2021/05/18 02:45:55;;;;;;;3.40;2.45;;;6.40;99.90;;;4.78;100.00;100341.81;4846084;28;20080;-79
2021/05/18 02:50:59;;;;;;;14.20;3.00;;;5.90;99.90;;;4.37;100.00;100349.03;4847096;28;20561;-78
2021/05/18 02:53:22;;;;;;;25.02;3.08;;;5.90;99.90;;;4.34;100.00;100345.66;4844500;28;20083;-78
2021/05/18 02:55:52;;;;;;;9.10;3.17;;;5.90;99.90;;;4.31;100.00;100344.84;4846285;28;20091;-78
2021/05/18 02:58:17;;;;;;;20.38;4.53;;;5.80;99.90;;;4.33;100.00;100344.81;4846717;28;20087;-79
2021/05/18 03:00:41;;;;;;;53.93;4.93;;;;;;;4.35;100.00;100347.38;4846765;28;20491;-79
2021/05/18 03:03:04;;;;;;;19.58;4.50;;;5.90;99.90;;;4.34;100.00;100349.13;4861510;28;20092;-78
2021/05/18 03:05:27;;;;;;;17.35;4.13;;;5.90;99.90;;;4.34;100.00;100350.88;4862083;28;20098;-79
2021/05/18 03:07:52;;;;;;;161.85;5.53;;;5.90;99.90;;;4.35;100.00;100358.66;4862179;28;20105;-78
2021/05/18 03:10:15;;;;;;;161.07;5.63;;;6.00;99.90;;;4.47;100.00;100358.34;4864192;28;20084;-78
2021/05/18 03:12:38;;;;;;;8.85;2.95;;;6.10;99.90;;;4.55;100.00;100370.28;4862593;28;20075;-78
2021/05/18 03:15:03;;;;;;;9.20;3.70;;;6.20;99.90;;;4.64;100.00;100373.50;4863358;28;20096;-78
2021/05/18 03:17:27;;;;;;;4.47;3.00;;;6.30;99.90;;;4.81;100.00;100367.81;4862948;28;20446;-79
2021/05/18 03:19:50;;;;;;;6.55;2.92;;;6.40;99.90;;;4.84;100.00;100361.66;4863783;28;20083;-78
2021/05/18 03:22:13;;;;;;;3.95;2.78;;;6.40;99.90;;;4.87;100.00;100361.56;4865492;28;20083;-78
2021/05/18 03:24:35;;;;;;;5.43;3.33;;;6.40;99.90;;;4.83;100.00;100363.41;4843915;28;20083;-78
2021/05/18 03:26:58;;;;;;;4.25;3.05;;;;;;;4.85;100.00;100364.22;4866132;28;20086;-79
2021/05/18 03:29:23;;;;;;;7.63;4.47;;;6.40;99.90;;;4.92;100.00;100373.59;4865291;28;20126;-80
2021/05/18 03:34:35;;;;;;;4.85;3.47;;;6.60;99.90;;;5.07;100.00;100380.09;4880186;28;20489;-79
2021/05/18 03:37:01;;;;;;;5.05;3.72;;;6.60;99.90;;;5.04;100.00;100385.41;4864575;28;20091;-79
2021/05/18 03:39:24;;;;;;;4.40;3.25;;;6.50;99.90;;;4.98;100.00;100382.13;4862504;28;20113;-79
2021/05/18 03:41:55;;;;;;;8.65;2.40;;;;;;;4.77;100.00;100381.84;4863883;28;20690;-79
2021/05/18 03:44:22;;;;;;;42.58;2.08;;;6.10;99.90;;;4.54;100.00;100385.09;4862693;28;20140;-79
2021/05/18 03:52:25;;;;;;;3.85;2.88;;;;;;;4.64;100.00;100388.28;4802624;28;20084;-78
2021/05/18 03:54:57;;;;;;;3.55;2.83;;;6.20;99.90;;;4.72;100.00;100389.78;4803601;28;20092;-79
2021/05/18 04:02:49;;;;;;;7.00;3.33;;;6.80;99.90;;;5.31;100.00;100394.19;4860842;28;20209;-77
2021/05/18 04:05:19;;;;;;;7.60;4.00;;;;;;;5.51;100.00;100387.50;4860250;28;20173;-79
2021/05/18 04:10:41;;;;;;;7.10;4.50;;;8.50;99.90;;;6.95;100.00;100384.38;4863526;28;20335;-79
2021/05/18 04:13:17;;;;;;;6.97;4.50;;;8.60;99.90;;;7.00;100.00;100377.22;4861242;28;20521;-78
2021/05/18 04:18:21;;;;;;;7.32;5.13;;;9.50;99.90;;;8.34;100.00;100375.34;4859704;28;20581;-79
2021/05/18 04:20:52;;;;;;;9.50;4.90;;;10.00;99.90;;;8.50;100.00;100379.97;4860365;28;20535;-79
2021/05/18 04:23:25;;;;;;;5.60;3.90;;;9.90;99.90;;;8.39;100.00;100383.00;4862382;28;20140;-79
2021/05/18 04:42:27;;;;;;;1.80;1.38;;;18.00;99.90;;;16.78;65.54;100381.94;4845649;28;20145;-80
2021/05/18 04:50:31;;;;;;;5.20;2.20;;;20.30;99.90;;;19.29;55.32;100393.19;4860177;28;20052;-80
2021/05/18 04:53:03;;;;;;;2.33;2.00;;;20.70;99.90;;;19.10;55.63;100410.00;4860803;28;20120;-79
2021/05/18 05:00:51;;;;;;;2.47;1.92;;;21.40;99.90;;;20.43;54.37;100405.13;4851533;28;20061;-81
2021/05/18 05:06:21;;;;;;;5.07;1.70;;;21.40;99.90;;;21.02;48.91;100408.53;4860839;28;20554;-80
2021/05/18 05:08:49;;;;;;;7.28;2.75;;;20.10;99.90;;;20.00;51.63;100419.78;4863440;28;20100;-80
2021/05/18 05:16:37;;;;;;;2.05;1.85;;;21.80;99.90;;;21.56;48.34;100411.41;4854485;28;20046;-80
2021/05/18 05:18:59;;;;;;;3.72;1.65;;;21.00;99.90;;;21.10;48.96;100412.16;4861872;28;20045;-80
2021/05/18 05:21:26;;;;;;;3.30;1.73;;;21.20;99.90;;;21.20;48.43;100409.44;4861999;28;20041;-80
2021/05/18 05:23:49;;;;;;;2.50;1.90;;;20.90;99.90;;;21.35;48.15;100419.66;4860057;28;20548;-79
2021/05/18 05:26:13;;;;;;;2.58;1.80;;;21.00;99.90;;;21.29;48.55;100413.06;4860792;28;20517;-80
2021/05/18 05:28:36;;;;;;;3.08;1.58;;;21.00;99.90;;;21.53;48.84;100417.88;4860705;28;20107;-81
2021/05/18 05:30:59;;;;;;;1.90;1.73;;;20.40;99.90;;;20.96;49.83;100420.66;4860761;28;20484;-80
2021/05/18 05:33:22;;;;;;;1.75;1.52;;;20.30;99.90;;;21.34;48.99;100428.66;4861567;28;20076;-81
2021/05/18 05:35:45;;;;;;;3.17;1.45;;;20.40;99.90;;;21.37;49.16;100433.75;4861820;28;20500;-80
2021/05/18 05:38:07;;;;;;;4.03;1.50;;;19.90;99.90;;;20.56;51.33;100431.56;4887516;28;20119;-80
2021/05/18 05:40:30;;;;;;;4.50;1.75;;;20.00;99.90;;;20.55;52.33;100432.56;4861906;28;20084;-80
2021/05/18 05:42:54;;;;;;;4.53;1.80;;;20.50;99.90;;;20.59;51.64;100432.16;4859556;28;20045;-80
2021/05/18 05:45:17;;;;;;;4.60;1.77;;;19.50;99.90;;;20.33;54.22;100439.06;4844666;28;20038;-86
2021/05/18 05:47:40;;;;;;;2.03;1.55;;;21.10;99.90;;;21.62;51.43;100434.88;4843479;28;20057;-81
2021/05/18 05:50:03;;;;;;;3.05;1.90;;;21.70;99.90;;;21.88;50.89;100435.03;4844178;28;20046;-81
2021/05/18 05:52:26;;;;;;;4.60;2.30;;;21.00;99.90;;;19.49;56.67;100448.34;4844592;28;20050;-80
2021/05/18 05:54:51;;;;;;;3.03;1.92;;;19.60;99.90;;;17.97;60.82;100453.25;4841115;28;20401;-79
2021/05/18 05:57:13;;;;;;;3.45;2.20;;;18.40;99.90;;;16.37;68.43;100458.59;4842309;28;20096;-80
2021/05/18 05:59:37;;;;;;;3.47;2.20;;;16.80;99.90;;;15.50;73.29;100470.25;4844865;28;20050;-80
2021/05/18 06:02:03;;;;;;;3.33;2.30;;;16.30;99.90;;;15.54;75.80;100461.97;4843956;28;20057;-80
2021/05/18 06:04:26;;;;;;;3.30;2.70;;;16.10;99.90;;;15.31;77.74;100466.28;4841807;28;21235;-79
2021/05/18 06:06:48;;;;;;;4.13;2.83;;;17.20;99.90;;;17.13;72.57;100463.50;4841210;28;20069;-80
2021/05/18 06:09:11;;;;;;;3.95;2.33;;;18.90;99.90;;;19.21;65.88;100456.09;4844511;28;20061;-81
2021/05/18 06:11:42;;;;;;;3.60;2.17;;;21.10;99.90;;;21.40;56.53;100455.69;4844981;28;20951;-80
2021/05/18 06:14:14;;;;;;;3.75;2.50;;;22.00;99.90;;;21.38;56.93;100459.53;4864735;28;20049;-80
2021/05/18 06:49:24;;;;;;;4.95;3.53;;;14.90;99.90;;;14.26;82.87;100508.75;4861406;28;20077;-81
2021/05/18 06:51:47;;;;;;;5.65;4.10;;;15.00;99.90;;;14.26;83.33;100506.09;4864199;28;20049;-82
2021/05/18 06:54:11;;;;;;;8.25;4.07;;;15.10;99.90;;;14.46;82.29;100515.38;4848286;28;20038;-79
2021/05/18 06:56:36;;;;;;;9.13;5.20;;;15.00;99.90;;;13.89;83.63;100511.13;4863512;28;20056;-81
2021/05/18 07:01:39;;;;;;;17.80;8.02;;;14.10;99.90;;;12.64;87.44;100518.69;4862360;28;20048;-81
2021/05/18 07:04:06;;;;;;;12.88;8.65;;;13.80;99.90;;;12.64;89.02;100520.47;4864311;28;20076;-84
2021/05/18 07:06:41;;;;;;;16.88;10.00;;;13.90;99.90;;;12.77;88.42;100523.25;4864324;28;21112;-81
2021/05/18 07:09:05;;;;;;;12.88;9.02;;;14.10;99.90;;;13.05;87.37;100530.38;4861089;28;20084;-81
2021/05/18 07:11:29;;;;;;;16.13;8.77;;;14.10;99.90;;;12.91;87.48;100529.41;4865026;28;20049;-80
2021/05/18 07:13:52;;;;;;;15.43;9.75;;;14.10;99.90;;;13.14;88.66;100535.94;4862249;28;20382;-80
2021/05/18 07:16:16;;;;;;;16.25;9.82;;;14.30;99.90;;;13.31;88.86;100532.31;4862418;28;20077;-79
2021/05/18 07:18:39;;;;;;;14.70;9.00;;;14.80;99.90;;;13.92;85.10;100530.28;4865154;28;20045;-80
2021/05/18 07:21:02;;;;;;;15.73;8.77;;;15.10;99.90;;;14.41;82.50;100531.56;4866513;28;20103;-81
2021/05/18 07:23:27;;;;;;;11.80;8.32;;;15.10;99.90;;;13.89;85.50;100535.78;4863639;28;20046;-79
2021/05/18 07:25:49;;;;;;;13.00;7.85;;;14.80;99.90;;;13.77;85.75;100543.66;4862554;28;20141;-79
2021/05/18 07:28:15;;;;;;;13.63;8.52;;;15.10;99.90;;;14.28;87.25;100536.81;4863100;28;20420;-77
2021/05/18 07:30:40;;;;;;;;;;;15.10;99.90;;;14.30;83.32;100547.31;4863182;28;20488;-78
2021/05/18 07:33:03;;;;;;;13.27;8.20;;;14.90;99.90;;;13.38;86.08;100548.66;4853292;28;19971;-79
2021/05/18 07:35:26;;;;;;;12.77;8.48;;;14.40;99.90;;;12.85;88.94;100550.91;4862835;28;20048;-78
2021/05/18 07:37:49;;;;;;;12.70;9.05;;;13.90;99.90;;;12.58;91.03;100555.16;4863599;28;20625;-83
2021/05/18 07:40:14;;;;;;;18.58;9.38;;;13.80;99.90;;;12.57;90.39;100556.97;4862800;28;20052;-79
2021/05/18 07:42:37;;;;;;;16.23;9.63;;;13.80;99.90;;;12.50;90.13;100559.09;4859116;28;20520;-80
2021/05/18 07:45:00;;;;;;;16.15;9.35;;;13.70;99.90;;;12.31;90.35;100561.09;4864655;28;20070;-80
2021/05/18 07:47:27;;;;;;;22.05;10.07;;;13.70;99.90;;;12.49;92.92;100562.66;4861798;28;20045;-80
2021/05/18 07:49:53;;;;;;;19.60;9.82;;;13.70;99.90;;;12.37;91.04;100567.78;4861274;28;20140;-79
2021/05/18 08:05:35;;;;;;;16.80;8.98;;;15.40;99.90;;;14.55;82.81;100560.66;4846331;28;20104;-79
2021/05/18 08:07:58;;;;;;;16.65;8.55;;;15.30;99.90;;;14.09;83.53;100566.28;4845652;28;20054;-79
2021/05/18 08:10:25;;;;;;;15.32;8.38;;;15.30;99.90;;;14.69;82.94;100562.41;4843808;28;20132;-78
2021/05/18 08:12:48;;;;;;;14.30;7.90;;;16.20;99.90;;;15.75;77.66;100559.66;4845213;28;20060;-79
2021/05/18 08:15:32;;;;;;;13.77;7.72;;;16.30;99.90;;;15.11;77.82;100563.13;4835242;28;20603;-80
2021/05/18 08:18:06;;;;;;;14.40;8.45;;;15.90;99.90;;;15.15;79.80;100566.41;4862494;28;20053;-78
2021/05/18 10:42:32;;;;;;;24.63;7.95;;;13.70;99.90;;;12.67;92.54;100644.44;4820970;28;20100;-79
2021/05/18 10:50:05;;;;;;;10.82;5.57;;;13.80;99.90;;;13.02;87.86;100652.97;4800317;28;20060;-79
2021/05/18 10:52:54;;;;;;;11.73;5.50;;;14.20;99.90;;;13.03;81.67;100653.84;4815884;28;20049;-80
2021/05/18 10:55:55;;;;;;;19.85;5.00;;;14.50;99.90;;;13.30;82.33;100643.47;4790280;28;20066;-80
2021/05/18 10:58:19;;;;;;;14.10;6.22;;;14.70;99.90;;;13.73;82.91;100654.97;4854131;28;20151;-79
2021/05/18 11:00:42;;;;;;;9.43;5.55;;;15.20;99.90;;;14.61;84.14;100646.03;4860562;28;20410;-81
2021/05/18 11:03:10;;;;;;;8.88;4.07;;;15.60;99.90;;;14.45;81.28;100657.56;4864227;28;20052;-81
2021/05/18 11:05:33;;;;;;;7.95;3.40;;;15.70;99.90;;;14.44;77.80;100655.00;4861723;28;20118;-79
2021/05/18 11:07:57;;;;;;;7.32;3.30;;;15.90;99.90;;;15.18;76.98;100659.91;4862166;28;20456;-80
2021/05/18 11:10:21;;;;;;;9.23;3.63;;;16.30;99.90;;;15.71;80.00;100662.53;4862528;28;20064;-81
2021/05/18 11:12:45;;;;;;;11.00;3.55;;;16.80;99.90;;;15.85;74.04;100666.88;4862642;28;20065;-79
2021/05/18 11:15:13;;;;;;;12.13;3.65;;;17.00;99.90;;;16.35;73.93;100658.97;4860826;28;20550;-80
2021/05/18 11:17:38;;;;;;;7.25;3.13;;;16.90;99.90;;;15.52;71.25;100662.06;4863170;28;20052;-79
2021/05/18 11:20:14;;;;;;;5.60;2.40;;;16.10;99.90;;;14.54;74.98;100666.72;4845282;28;20049;-80
2021/05/18 11:25:39;;;;;;;3.80;2.45;;;14.70;99.90;;;13.36;79.25;100666.91;4860500;28;20087;-79
2021/05/18 11:28:17;;;;;;;5.53;2.45;;;15.00;99.90;;;14.22;76.42;100671.44;4862963;28;20049;-79
2021/05/18 11:30:41;;;;;;;9.52;3.22;;;15.70;99.90;;;14.73;77.27;100675.22;4860827;28;20041;-78
2021/05/18 11:33:04;;;;;;;7.35;2.72;;;15.40;99.90;;;14.08;76.88;100675.78;4863809;28;20049;-77
2021/05/18 11:35:28;;;;;;;7.80;2.30;;;15.00;99.90;;;13.44;77.68;100679.69;4858690;28;20037;-77
2021/05/18 11:38:04;;;;;;;5.60;2.05;;;14.60;99.90;;;13.16;80.34;100683.91;4861219;28;20481;-78
2021/05/18 11:40:27;;;;;;;6.88;2.28;;;14.30;99.90;;;13.11;79.60;100683.34;4859720;28;20457;-78
2021/05/18 11:42:51;;;;;;;6.43;2.83;;;14.20;99.90;;;13.05;79.81;100684.53;4844651;28;20061;-78
2021/05/18 11:45:18;;;;;;;5.03;2.17;;;14.40;99.90;;;13.62;80.22;100689.16;4841383;28;20041;-78
2021/05/18 11:47:43;;;;;;;11.40;2.67;;;14.90;99.90;;;13.84;75.39;100680.75;4850139;28;20064;-80
2021/05/18 11:50:17;;;;;;;3.53;2.15;;;14.90;99.90;;;13.72;77.57;100682.38;4844210;28;20058;-80
2021/05/18 11:52:40;;;;;;;3.75;2.30;;;;;;;13.13;81.09;100689.34;4844344;28;20191;-80
2021/05/18 11:55:19;;;;;;;7.00;2.28;;;14.30;99.90;;;13.00;78.10;100696.31;4841645;28;20088;-79
2021/05/18 11:57:42;;;;;;;4.25;2.38;;;14.20;99.90;;;13.06;79.44;100691.50;4841986;28;20053;-77
2021/05/18 12:00:30;;;;;;;4.63;2.40;;;14.40;99.90;;;13.40;77.73;100686.94;4842166;28;20476;-78
2021/05/18 12:03:01;;;;;;;3.83;2.05;;;15.10;99.90;;;14.11;72.05;100678.22;4860680;28;20053;-78
2021/05/18 12:05:24;;;;;;;4.50;2.17;;;15.30;99.90;;;14.39;71.84;100689.75;4859373;28;20045;-78
2021/05/18 12:07:47;;;;;;;5.40;2.28;;;15.50;99.90;;;14.52;70.38;100681.88;4859680;28;20400;-78
2021/05/18 12:10:11;;;;;;;3.80;1.80;;;15.40;99.90;;;14.01;71.65;100678.91;4859609;28;20053;-80
2021/05/18 12:12:38;;;;;;;5.10;2.40;;;14.90;99.90;;;13.49;74.52;100699.63;4862849;28;20053;-80
2021/05/18 12:15:00;;;;;;;6.85;2.65;;;14.70;99.90;;;13.38;72.11;100701.22;4843207;28;20409;-79
2021/05/18 12:17:31;;;;;;;4.68;2.45;;;14.60;99.90;;;13.27;75.79;100707.94;4844184;28;20120;-80
2021/05/18 12:19:54;;;;;;;3.55;2.13;;;14.40;99.90;;;13.09;75.08;100714.31;4845328;28;20133;-80
2021/05/18 12:22:17;;;;;;;11.85;2.55;;;14.30;99.90;;;12.90;75.36;100712.69;4842511;28;20048;-79
2021/05/18 12:24:43;;;;;;;6.25;2.42;;;14.30;99.90;;;13.26;74.39;100719.47;4843221;28;20058;-78
2021/05/18 12:27:07;;;;;;;8.32;2.80;;;14.50;99.90;;;13.35;76.30;100720.75;4841125;28;20053;-79
2021/05/18 12:29:35;;;;;;;8.13;2.70;;;14.70;99.90;;;13.54;72.39;100710.78;4841272;28;20092;-79
2021/05/18 12:32:21;;;;;;;5.65;2.80;;;14.80;99.90;;;13.73;74.36;100715.81;4842304;28;20042;-80
2021/05/18 12:34:47;;;;;;;4.80;2.90;;;14.90;99.90;;;13.62;70.39;100720.91;4843896;28;20098;-79
2021/05/18 12:37:11;;;;;;;;;;;14.90;99.90;;;13.69;70.71;100708.16;4842097;28;20095;-85
2021/05/18 12:39:42;;;;;;;9.15;3.15;;;14.80;99.90;;;13.67;72.16;100710.03;4841607;28;20009;-79
2021/05/18 12:42:06;;;;;;;8.52;2.53;;;14.80;99.90;;;13.51;69.46;100710.13;4843825;28;20148;-78
2021/05/18 12:44:32;;;;;;;4.50;2.00;;;14.90;99.90;;;13.79;71.45;100708.47;4860739;28;20078;-77
2021/05/18 12:47:03;;;;;;;3.95;1.75;;;15.10;99.90;;;14.02;69.34;100707.94;4845444;28;20061;-79
2021/05/18 12:49:30;;;;;;;2.65;1.52;;;15.20;99.90;;;14.15;71.01;100708.03;4843305;28;20065;-79
2021/05/18 12:52:12;;;;;;;2.75;1.60;;;15.30;99.90;;;14.04;68.01;100706.03;4843911;28;20049;-79
2021/05/18 12:54:51;;;;;;;3.00;1.67;;;15.00;99.90;;;13.74;67.42;100704.31;4842189;28;20116;-78
2021/05/18 12:57:18;;;;;;;4.43;1.90;;;15.00;99.90;;;13.82;69.90;100705.63;4842810;28;20049;-81
2021/05/18 13:00:07;;;;;;;3.00;1.65;;;14.90;99.90;;;13.73;69.63;100709.69;4860318;28;20034;-78
2021/05/18 13:02:37;;;;;;;5.85;1.42;;;14.80;99.90;;;13.59;70.86;100718.47;4851860;28;20065;-78
2021/05/18 13:05:23;;;;;;;6.32;1.60;;;14.90;99.90;;;13.74;68.19;100719.34;4843428;28;20096;-80
2021/05/18 13:08:08;;;;;;;2.80;1.33;;;14.70;99.90;;;13.39;65.83;100713.47;4852865;28;20063;-77
2021/05/18 13:10:39;;;;;;;4.65;1.50;;;14.60;99.90;;;13.43;67.87;100720.28;4858426;28;20037;-77
2021/05/18 13:13:03;;;;;;;8.00;1.52;;;14.50;99.90;;;13.36;66.46;100716.31;4839937;28;20516;-79
2021/05/18 13:15:26;;;;;;;1.92;1.05;;;14.60;99.90;;;13.48;64.80;100718.25;4844817;28;20082;-78
2021/05/18 13:17:55;;;;;;;3.47;1.45;;;14.80;99.90;;;13.64;68.95;100721.66;4842833;28;20046;-80
2021/05/18 13:20:18;;;;;;;6.43;1.35;;;14.90;99.90;;;13.70;66.86;100721.31;4842026;28;20049;-81
2021/05/18 13:22:43;;;;;;;6.45;1.70;;;14.80;99.90;;;13.61;68.80;100724.50;4841132;28;20178;-77
2021/05/18 13:27:55;;;;;;;3.95;1.73;;;15.00;99.90;;;13.84;68.63;100715.19;4842120;28;20139;-78
2021/05/18 13:30:21;;;;;;;3.38;1.27;;;15.10;99.90;;;14.05;65.82;100715.66;4842839;28;20507;-79
2021/05/18 13:32:47;;;;;;;2.17;1.08;;;15.10;99.90;;;13.95;65.55;100718.03;4842445;28;20054;-80
2021/05/18 13:35:11;;;;;;;6.03;1.20;;;15.10;99.90;;;13.86;64.88;100723.03;4860700;28;20042;-78
2021/05/18 13:37:34;;;;;;;3.05;1.25;;;15.10;99.90;;;13.83;65.03;100723.22;4861450;28;20053;-79
2021/05/18 13:39:57;;;;;;;3.42;0.93;;;15.10;99.90;;;14.02;66.79;100721.16;4887312;28;20068;-79
2021/05/18 13:42:21;;;;;;;5.25;1.65;;;15.10;99.90;;;13.97;66.31;100728.53;4860435;28;20088;-80
2021/05/18 13:44:44;;;;;;;5.95;1.33;;;15.10;99.90;;;13.94;68.14;100731.38;4860096;28;20455;-80
2021/05/18 13:47:07;;;;;;;3.58;1.35;;;15.10;99.90;;;13.95;64.23;100726.00;4859370;28;20061;-77
2021/05/18 13:49:29;;;;;;;2.22;1.30;;;15.20;99.90;;;14.28;64.73;100729.31;4860599;28;20049;-80
2021/05/18 13:51:53;;;;;;;1.25;0.98;;;15.30;99.90;;;14.08;65.82;100734.03;4861594;28;20056;-81
2021/05/18 13:54:16;;;;;;;4.97;1.10;;;15.10;99.90;;;13.89;66.11;100729.00;4843285;28;20434;-78
2021/05/18 13:56:41;;;;;;;2.47;1.00;;;15.00;99.90;;;13.90;64.25;100735.97;4851163;28;20053;-79
2021/05/18 13:59:05;;;;;;;1.80;1.02;;;15.10;99.90;;;14.32;63.47;100731.66;4861701;28;20054;-79
2021/05/18 14:01:28;;;;;;;3.20;1.30;;;15.40;99.90;;;14.27;62.42;100730.25;4860941;28;20050;-81
2021/05/18 14:03:53;;;;;;;2.40;1.25;;;15.50;99.90;;;14.50;64.05;100721.72;4842621;28;20054;-79
2021/05/18 14:06:17;;;;;;;7.00;1.60;;;15.30;99.90;;;14.17;63.83;100729.97;4841184;28;20149;-78
2021/05/18 14:08:40;;;;;;;1.98;1.10;;;15.30;99.90;;;14.15;65.04;100731.84;4841151;28;20045;-78
2021/05/18 14:11:07;;;;;;;3.47;1.40;;;15.20;99.90;;;14.01;61.74;100727.38;4843885;28;20042;-78
2021/05/18 14:13:33;;;;;;;2.65;1.20;;;15.30;99.90;;;14.20;61.45;100727.13;4842957;28;20504;-79
2021/05/18 14:15:57;;;;;;;1.83;0.98;;;15.40;99.90;;;14.36;63.00;100729.66;4842733;28;20044;-80
2021/05/18 14:18:20;;;;;;;7.13;1.35;;;15.70;99.90;;;14.88;65.12;100728.19;4838733;28;20524;-78
2021/05/18 14:20:45;;;;;;;3.10;1.10;;;15.80;99.90;;;14.64;63.00;100728.81;4843504;28;20493;-78
2021/05/18 14:23:09;;;;;;;5.80;1.35;;;15.70;99.90;;;14.71;65.49;100726.63;4840579;28;20068;-80
2021/05/18 14:25:33;;;;;;;4.60;1.30;;;15.70;99.90;;;14.51;62.26;100730.50;4842325;28;20050;-79
2021/05/18 14:27:56;;;;;;;3.00;1.13;;;15.50;99.90;;;14.22;64.57;100734.97;4868667;28;20432;-81
2021/05/18 14:30:21;;;;;;;2.45;1.00;;;15.40;99.90;;;14.42;63.15;100728.44;4843158;28;20165;-81
2021/05/18 14:32:45;;;;;;;2.70;1.05;;;15.40;99.90;;;14.20;66.40;100732.41;4843806;28;20133;-79
2021/05/18 14:35:11;;;;;;;2.55;1.00;;;15.20;99.90;;;13.90;65.43;100724.56;4845367;28;20042;-78
2021/05/18 14:37:34;;;;;;;3.65;1.35;;;15.00;99.90;;;13.70;66.92;100734.53;4843403;28;20045;-76
2021/05/18 14:40:04;;;;;;;2.78;1.27;;;14.80;99.90;;;13.65;69.19;100736.63;4846259;28;20042;-78
2021/05/18 14:42:52;;;;;;;1.83;1.20;;;14.90;99.90;;;13.76;68.81;100733.34;4844438;28;20068;-78
2021/05/18 14:45:18;;;;;;;2.70;1.10;;;14.80;99.90;;;13.72;64.74;100729.16;4862598;28;20112;-79
2021/05/18 14:47:48;;;;;;;2.70;1.30;;;14.80;99.90;;;13.77;68.38;100723.59;4886009;28;20111;-81